Time;durP1;ratioP1;P1;durP2;ratioP2;P2;SDS_P1;SDS_P2;PMS_P1;PMS_P2;Temp;Humidity;BMP_temperature;BMP_pressure;BME280_temperature;BME280_humidity;BME280_pressure;Samples;Min_cycle;Max_cycle;Signal;HPM_P1;HPM_P2
2022/07/04 00:00:46;;;;;;;0.40;0.32;;;15.20;99.90;;;;;;5033088;28;20218;-48
2022/07/04 00:03:11;;;;;;;0.20;0.20;;;15.20;99.90;;;;;;5036780;28;20184;-48
2022/07/04 00:05:38;;;;;;;0.30;0.30;;;15.20;99.90;;;;;;5036642;28;20668;-50
2022/07/04 00:08:04;;;;;;;0.30;0.30;;;15.20;99.90;;;;;;5036714;28;20298;-50
2022/07/04 00:10:30;;;;;;;0.30;0.30;;;15.20;99.90;;;;;;5036941;28;20206;-48
2022/07/04 00:12:56;;;;;;;0.20;0.20;;;15.10;99.90;;;;;;5019163;28;20590;-48
2022/07/04 00:15:22;;;;;;;0.40;0.40;;;15.10;99.90;;;;;;5036655;28;20238;-49
2022/07/04 00:17:48;;;;;;;0.45;0.30;;;15.00;99.90;;;;;;5036639;28;20172;-49
2022/07/04 00:20:14;;;;;;;0.20;0.20;;;15.00;99.90;;;;;;5036410;28;20576;-48
2022/07/04 00:22:39;;;;;;;0.20;0.20;;;15.00;99.90;;;;;;5036648;28;20259;-48
2022/07/04 00:25:06;;;;;;;1.60;0.50;;;15.00;99.90;;;;;;5036607;28;20187;-50
2022/07/04 00:27:31;;;;;;;0.40;0.40;;;14.90;99.90;;;;;;5036514;28;20183;-49
2022/07/04 00:29:57;;;;;;;0.20;0.20;;;14.90;99.90;;;;;;5036200;28;20180;-49
2022/07/04 00:32:23;;;;;;;0.43;0.20;;;14.90;99.90;;;;;;5036379;28;20175;-50
2022/07/04 00:34:49;;;;;;;0.40;0.40;;;14.90;99.90;;;;;;5036478;28;20199;-49
2022/07/04 00:37:14;;;;;;;0.20;0.20;;;14.80;99.90;;;;;;5036421;28;20180;-50
2022/07/04 00:39:41;;;;;;;0.22;0.22;;;14.80;99.90;;;;;;5036275;28;20211;-48
2022/07/04 00:42:09;;;;;;;0.68;0.60;;;14.70;99.90;;;;;;5036257;28;20598;-52
2022/07/04 00:44:36;;;;;;;0.77;0.60;;;14.70;99.90;;;;;;5036176;28;20335;-50
2022/07/04 00:47:05;;;;;;;0.80;0.60;;;14.60;99.90;;;;;;5018647;28;20198;-51
2022/07/04 00:49:31;;;;;;;0.40;0.40;;;14.50;99.90;;;;;;5035876;28;20191;-52
2022/07/04 00:51:58;;;;;;;0.40;0.40;;;14.40;99.90;;;;;;5036163;28;20621;-52
2022/07/04 00:54:30;;;;;;;0.40;0.40;;;14.30;99.90;;;;;;5036099;28;20175;-47
2022/07/04 00:56:57;;;;;;;1.13;0.55;;;14.40;99.90;;;;;;5035967;28;20172;-49
2022/07/04 00:59:23;;;;;;;0.47;0.47;;;14.40;99.90;;;;;;5035655;28;20180;-52
2022/07/04 01:01:50;;;;;;;0.60;0.60;;;14.30;99.90;;;;;;5035696;28;20291;-52
2022/07/04 01:04:16;;;;;;;0.75;0.40;;;14.20;99.90;;;;;;5035675;28;20232;-48
2022/07/04 01:06:43;;;;;;;0.40;0.40;;;14.20;99.90;;;;;;5035675;28;20560;-51
2022/07/04 01:09:08;;;;;;;0.40;0.40;;;14.20;99.90;;;;;;5035607;28;20172;-51
2022/07/04 01:11:34;;;;;;;0.60;0.50;;;14.10;99.90;;;;;;5001625;28;20238;-51
2022/07/04 01:14:00;;;;;;;1.15;0.60;;;14.00;99.90;;;;;;5034666;28;20172;-48
2022/07/04 01:16:27;;;;;;;0.73;0.70;;;14.10;99.90;;;;;;5035373;28;20188;-49
2022/07/04 01:18:53;;;;;;;0.47;0.43;;;14.10;99.90;;;;;;5017932;28;20202;-48
2022/07/04 01:21:20;;;;;;;0.80;0.50;;;14.10;99.90;;;;;;5035344;28;20291;-50
2022/07/04 01:23:46;;;;;;;0.88;0.52;;;14.00;99.90;;;;;;5035503;28;20180;-48
2022/07/04 01:26:11;;;;;;;0.30;0.30;;;14.10;99.90;;;;;;5035348;28;20176;-48
2022/07/04 01:28:38;;;;;;;0.52;0.52;;;14.10;99.90;;;;;;5035221;28;20183;-51
2022/07/04 01:31:04;;;;;;;1.02;0.73;;;14.10;99.90;;;;;;5035171;28;20641;-51
2022/07/04 01:33:30;;;;;;;1.15;0.70;;;14.10;99.90;;;;;;5035382;28;20218;-52
2022/07/04 01:35:56;;;;;;;0.50;0.50;;;14.10;99.90;;;;;;5035296;28;20653;-52
2022/07/04 01:38:22;;;;;;;0.75;0.60;;;14.10;99.90;;;;;;5035261;28;20632;-52
2022/07/04 01:40:47;;;;;;;0.50;0.50;;;14.10;99.90;;;;;;5035036;28;20695;-50
2022/07/04 01:43:13;;;;;;;0.50;0.50;;;14.00;99.90;;;;;;5017335;28;20169;-52
2022/07/04 01:45:39;;;;;;;0.57;0.57;;;14.00;99.90;;;;;;5034944;28;20650;-53
2022/07/04 01:48:09;;;;;;;0.60;0.60;;;13.90;99.90;;;;;;5035140;28;20184;-48
2022/07/04 01:50:35;;;;;;;0.50;0.50;;;13.90;99.90;;;;;;5035286;28;20545;-48
2022/07/04 01:53:02;;;;;;;0.50;0.50;;;13.90;99.90;;;;;;5034959;28;20180;-48
2022/07/04 01:55:28;;;;;;;0.60;0.60;;;13.90;99.90;;;;;;5034834;28;20180;-48
2022/07/04 01:57:54;;;;;;;0.73;0.50;;;14.00;99.90;;;;;;5034809;28;20210;-48
2022/07/04 02:03:04;;;;;;;0.60;0.60;;;14.00;99.90;;;;;;5034993;28;20278;-48
2022/07/04 02:05:30;;;;;;;0.65;0.57;;;14.00;99.90;;;;;;5034755;28;20640;-48
2022/07/04 02:07:56;;;;;;;0.50;0.50;;;14.00;99.90;;;;;;5034661;28;20199;-48
2022/07/04 02:10:21;;;;;;;0.75;0.63;;;14.00;99.90;;;;;;5034562;28;20195;-48
2022/07/04 02:13:03;;;;;;;0.57;0.57;;;13.90;99.90;;;;;;5034448;28;20342;-48
2022/07/04 02:15:30;;;;;;;0.80;0.80;;;14.00;99.90;;;;;;5034580;28;20176;-49
2022/07/04 02:17:56;;;;;;;0.70;0.70;;;13.90;99.90;;;;;;5034498;28;20178;-51
2022/07/04 02:20:22;;;;;;;0.98;0.70;;;13.90;99.90;;;;;;5034256;28;20215;-49
2022/07/04 02:22:48;;;;;;;0.73;0.63;;;13.80;99.90;;;;;;5034360;28;20267;-51
2022/07/04 02:25:13;;;;;;;0.57;0.57;;;13.90;99.90;;;;;;5034084;28;20612;-50
2022/07/04 02:27:39;;;;;;;0.50;0.50;;;13.80;99.90;;;;;;5034336;28;20776;-48
2022/07/04 02:30:06;;;;;;;0.43;0.43;;;13.90;99.90;;;;;;5034341;28;20263;-48
2022/07/04 02:32:31;;;;;;;0.60;0.60;;;13.80;99.90;;;;;;5034245;28;20176;-51
2022/07/04 02:34:57;;;;;;;0.70;0.70;;;13.80;99.90;;;;;;5034171;28;20744;-48
2022/07/04 02:37:23;;;;;;;0.60;0.55;;;13.70;99.90;;;;;;5034060;28;20652;-49
2022/07/04 02:39:49;;;;;;;0.50;0.50;;;13.70;99.90;;;;;;5016185;28;20238;-48
2022/07/04 02:42:14;;;;;;;0.90;0.60;;;13.70;99.90;;;;;;5034134;28;20210;-50
2022/07/04 02:44:41;;;;;;;0.63;0.63;;;13.60;99.90;;;;;;5033949;28;20633;-50
2022/07/04 02:47:07;;;;;;;0.70;0.70;;;13.60;99.90;;;;;;5034039;28;20200;-48
2022/07/04 02:49:33;;;;;;;1.20;0.70;;;13.60;99.90;;;;;;5033811;28;20207;-48
2022/07/04 02:51:58;;;;;;;0.60;0.60;;;13.60;99.90;;;;;;5033750;28;20637;-48
2022/07/04 02:54:24;;;;;;;0.55;0.55;;;13.60;99.90;;;;;;5016090;28;20184;-47
2022/07/04 02:56:50;;;;;;;0.90;0.80;;;13.50;99.90;;;;;;5033859;28;20210;-47
2022/07/04 02:59:15;;;;;;;0.60;0.50;;;13.40;99.90;;;;;;5016066;28;20529;-49
2022/07/04 03:01:41;;;;;;;1.10;0.90;;;13.40;99.90;;;;;;5033762;28;20700;-51
2022/07/04 03:04:07;;;;;;;0.63;0.55;;;13.40;99.90;;;;;;5033664;28;20691;-48
2022/07/04 03:06:33;;;;;;;0.60;0.60;;;13.40;99.90;;;;;;5033585;28;20184;-49
2022/07/04 03:08:58;;;;;;;0.85;0.70;;;13.40;99.90;;;;;;5033700;28;20259;-49
2022/07/04 03:11:24;;;;;;;1.67;0.60;;;13.30;99.90;;;;;;5033683;28;20186;-49
2022/07/04 03:13:50;;;;;;;0.50;0.50;;;13.40;99.90;;;;;;5033626;28;20176;-48
2022/07/04 03:16:15;;;;;;;1.00;0.70;;;13.30;99.90;;;;;;5033550;28;20176;-50
2022/07/04 03:18:41;;;;;;;0.65;0.50;;;13.40;99.90;;;;;;5033473;28;20199;-47
2022/07/04 03:21:07;;;;;;;0.50;0.50;;;13.40;99.90;;;;;;5033387;28;20294;-49
2022/07/04 03:23:34;;;;;;;0.80;0.80;;;13.30;99.90;;;;;;5033311;28;20549;-48
2022/07/04 03:26:00;;;;;;;0.82;0.63;;;13.30;99.90;;;;;;5033452;28;20180;-49
2022/07/04 03:28:26;;;;;;;0.52;0.52;;;13.30;99.90;;;;;;5033420;28;20248;-50
2022/07/04 03:30:51;;;;;;;0.73;0.73;;;13.30;99.90;;;;;;5033410;28;20214;-49
2022/07/04 03:33:17;;;;;;;0.60;0.60;;;13.30;99.90;;;;;;5033284;28;20175;-48
2022/07/04 03:35:43;;;;;;;0.60;0.60;;;13.30;99.90;;;;;;5032681;28;20283;-51
2022/07/04 03:38:09;;;;;;;0.70;0.70;;;13.30;99.90;;;;;;5033148;28;20636;-53
2022/07/04 03:40:35;;;;;;;0.82;0.70;;;13.30;99.90;;;;;;5033270;28;20700;-48
2022/07/04 03:43:03;;;;;;;0.70;0.70;;;13.30;99.90;;;;;;5033272;28;20199;-51
2022/07/04 03:45:29;;;;;;;0.60;0.60;;;13.30;99.90;;;;;;5015828;28;20214;-47
2022/07/04 03:47:56;;;;;;;0.70;0.50;;;13.20;99.90;;;;;;5033134;28;20203;-49
2022/07/04 03:50:22;;;;;;;0.50;0.50;;;13.20;99.90;;;;;;5033078;28;20195;-49
2022/07/04 03:52:48;;;;;;;1.27;0.50;;;13.30;99.90;;;;;;5033005;28;20168;-50
2022/07/04 03:55:14;;;;;;;0.98;0.70;;;13.30;99.90;;;;;;5033229;28;20572;-52
2022/07/04 03:57:39;;;;;;;0.60;0.50;;;13.30;99.90;;;;;;5033152;28;20175;-50
2022/07/04 04:00:07;;;;;;;0.63;0.60;;;13.30;99.90;;;;;;5033042;28;20669;-48
2022/07/04 04:02:33;;;;;;;0.77;0.77;;;13.30;99.90;;;;;;5032952;28;20191;-51
2022/07/04 04:07:43;;;;;;;0.90;0.55;;;13.30;99.90;;;;;;5033181;28;20235;-49
2022/07/04 04:10:09;;;;;;;0.55;0.55;;;13.30;99.90;;;;;;5033000;28;20275;-49
2022/07/04 04:12:35;;;;;;;0.65;0.60;;;13.30;99.90;;;;;;5032944;28;20264;-49
2022/07/04 04:15:01;;;;;;;0.50;0.50;;;13.30;99.90;;;;;;5032888;28;20528;-47
2022/07/04 04:17:27;;;;;;;0.50;0.50;;;13.20;99.90;;;;;;5032784;28;20176;-49
2022/07/04 04:19:52;;;;;;;0.52;0.50;;;13.20;99.90;;;;;;5032660;28;20219;-49
2022/07/04 04:22:18;;;;;;;1.05;0.95;;;13.30;99.90;;;;;;5015409;28;20263;-52
2022/07/04 04:24:43;;;;;;;1.42;0.60;;;13.20;99.90;;;;;;5015302;28;20184;-52
2022/07/04 04:27:09;;;;;;;1.15;0.85;;;13.20;99.90;;;;;;5032879;28;20172;-51
2022/07/04 04:29:35;;;;;;;0.70;0.57;;;13.40;99.90;;;;;;5032874;28;20180;-52
2022/07/04 04:32:00;;;;;;;1.20;0.57;;;13.40;99.90;;;;;;5015126;28;20187;-51
2022/07/04 04:34:26;;;;;;;1.05;0.60;;;13.50;99.90;;;;;;5032845;28;20179;-48
2022/07/04 04:36:52;;;;;;;0.82;0.50;;;13.50;99.90;;;;;;5032854;28;20580;-52
2022/07/04 04:39:17;;;;;;;0.50;0.50;;;13.50;99.90;;;;;;5032767;28;20172;-52
2022/07/04 04:41:43;;;;;;;0.40;0.40;;;13.50;99.90;;;;;;5032651;28;20290;-53
2022/07/04 04:44:08;;;;;;;0.85;0.43;;;13.50;99.90;;;;;;5032641;28;20183;-52
2022/07/04 04:46:34;;;;;;;0.60;0.60;;;13.50;99.90;;;;;;5032566;28;20262;-52
2022/07/04 04:49:00;;;;;;;0.70;0.70;;;13.60;99.90;;;;;;5017010;28;20629;-47
2022/07/04 04:51:25;;;;;;;2.05;0.65;;;13.60;99.90;;;;;;5036213;28;20176;-48
2022/07/04 04:53:51;;;;;;;0.60;0.60;;;13.70;99.90;;;;;;5036445;28;20172;-48
2022/07/04 04:56:17;;;;;;;0.82;0.68;;;13.70;99.90;;;;;;5036003;28;20198;-49
2022/07/04 04:58:42;;;;;;;0.45;0.45;;;13.80;99.90;;;;;;5035979;28;20180;-50
2022/07/04 05:01:08;;;;;;;0.80;0.57;;;13.90;99.90;;;;;;5035531;28;20211;-48
2022/07/04 05:03:34;;;;;;;1.73;0.70;;;13.90;99.90;;;;;;5018091;28;20203;-48
2022/07/04 05:06:00;;;;;;;1.02;0.50;;;13.90;99.90;;;;;;5036254;28;20179;-48
2022/07/04 05:08:26;;;;;;;1.08;0.80;;;14.00;99.90;;;;;;5036008;28;20283;-48
2022/07/04 05:10:52;;;;;;;0.40;0.40;;;14.10;99.90;;;;;;5035811;28;20176;-49
2022/07/04 05:13:18;;;;;;;0.93;0.70;;;14.10;99.90;;;;;;5035624;28;20628;-49
2022/07/04 05:15:44;;;;;;;0.85;0.73;;;14.20;99.90;;;;;;5033992;28;20695;-49
2022/07/04 05:18:10;;;;;;;0.70;0.70;;;14.30;99.90;;;;;;5001489;28;20172;-49
2022/07/04 05:20:35;;;;;;;2.47;0.70;;;14.40;99.90;;;;;;5035612;28;20211;-52
2022/07/04 05:23:01;;;;;;;0.63;0.60;;;14.50;99.90;;;;;;5035459;28;20274;-49
2022/07/04 05:25:27;;;;;;;0.93;0.60;;;14.60;99.90;;;;;;5035543;28;20255;-49
2022/07/04 05:27:52;;;;;;;0.60;0.60;;;14.70;99.90;;;;;;5035504;28;20267;-48
2022/07/04 05:30:18;;;;;;;0.80;0.68;;;14.80;99.90;;;;;;5035231;28;20552;-49
2022/07/04 05:32:44;;;;;;;0.70;0.70;;;14.90;99.90;;;;;;5035289;28;20176;-49
2022/07/04 05:35:09;;;;;;;0.82;0.60;;;15.00;99.90;;;;;;5035412;28;20210;-48
2022/07/04 05:37:35;;;;;;;2.10;1.48;;;15.10;99.90;;;;;;5035325;28;20178;-48
2022/07/04 05:40:02;;;;;;;1.08;0.73;;;15.10;99.90;;;;;;5017591;28;20225;-51
2022/07/04 05:42:28;;;;;;;0.85;0.52;;;15.10;99.90;;;;;;4985072;28;20190;-48
2022/07/04 05:44:54;;;;;;;0.73;0.68;;;15.30;99.90;;;;;;5034978;28;20184;-52
2022/07/04 05:47:23;;;;;;;0.50;0.50;;;15.30;99.90;;;;;;5034994;28;20651;-48
2022/07/04 05:49:49;;;;;;;0.80;0.75;;;15.40;99.90;;;;;;5035196;28;20176;-48
2022/07/04 05:52:15;;;;;;;1.13;0.70;;;15.60;99.90;;;;;;5034996;28;20172;-49
2022/07/04 05:54:41;;;;;;;0.65;0.65;;;15.60;99.90;;;;;;5034997;28;20541;-49
2022/07/04 05:57:07;;;;;;;1.17;0.70;;;15.80;99.90;;;;;;5034881;28;20184;-49
2022/07/04 05:59:33;;;;;;;0.80;0.75;;;15.80;99.90;;;;;;5033950;28;20698;-49
2022/07/04 06:01:59;;;;;;;1.13;0.90;;;15.90;99.90;;;;;;5034646;28;20298;-48
2022/07/04 06:04:24;;;;;;;1.23;0.90;;;16.10;99.90;;;;;;5017249;28;20198;-52
2022/07/04 06:06:50;;;;;;;1.50;1.17;;;16.20;99.90;;;;;;5034945;28;20271;-50
2022/07/04 06:09:16;;;;;;;1.13;0.93;;;16.30;99.90;;;;;;5034725;28;20176;-50
2022/07/04 06:11:42;;;;;;;1.05;0.85;;;16.40;99.90;;;;;;5016731;28;20582;-48
2022/07/04 06:14:07;;;;;;;1.20;0.90;;;16.70;99.90;;;;;;5034388;28;20172;-50
2022/07/04 06:16:33;;;;;;;2.50;1.00;;;16.70;99.90;;;;;;5034460;28;20176;-52
2022/07/04 06:18:58;;;;;;;1.27;0.80;;;16.70;99.90;;;;;;5034558;28;20180;-52
2022/07/04 06:21:24;;;;;;;3.17;1.17;;;16.80;99.90;;;;;;5034560;28;20641;-48
2022/07/04 06:23:50;;;;;;;2.42;1.55;;;16.90;99.90;;;;;;5016805;28;20223;-48
2022/07/04 06:26:15;;;;;;;3.15;1.20;;;16.90;99.90;;;;;;5016649;28;20184;-50
2022/07/04 06:28:41;;;;;;;2.47;1.00;;;16.90;99.90;;;;;;5034230;28;20199;-51
2022/07/04 06:31:07;;;;;;;3.78;2.30;;;16.80;99.90;;;;;;5034043;28;20645;-51
2022/07/04 06:35:44;;;;;;;1.92;1.35;;;16.80;99.90;;;;;;5034407;28;20179;-51
2022/07/04 06:36:18;;;;;;;1.70;0.98;;;16.90;99.90;;;;;;5033954;28;20241;-50
2022/07/04 06:38:44;;;;;;;1.75;1.00;;;16.80;99.90;;;;;;5034096;28;20542;-50
2022/07/04 06:41:11;;;;;;;1.50;1.40;;;16.70;99.90;;;;;;5033878;28;20555;-48
2022/07/04 06:43:36;;;;;;;1.70;1.15;;;16.40;99.90;;;;;;5033823;28;20667;-49
2022/07/04 06:46:02;;;;;;;1.10;1.00;;;16.40;99.90;;;;;;5016367;28;20180;-51
2022/07/04 06:48:29;;;;;;;3.25;1.55;;;16.70;99.90;;;;;;5034013;28;20176;-52
2022/07/04 06:50:54;;;;;;;2.60;1.52;;;16.90;99.90;;;;;;5033902;28;20242;-50
2022/07/04 06:53:20;;;;;;;1.42;0.95;;;17.20;99.90;;;;;;5033859;28;20176;-48
2022/07/04 06:55:46;;;;;;;2.38;1.02;;;17.30;99.90;;;;;;5033639;28;20618;-52
2022/07/04 06:58:12;;;;;;;1.77;1.02;;;17.40;99.90;;;;;;5033564;28;20240;-50
2022/07/04 07:00:38;;;;;;;1.92;1.27;;;17.60;99.90;;;;;;5033325;28;20208;-49
2022/07/04 07:03:04;;;;;;;2.38;1.25;;;17.90;99.90;;;;;;5033797;28;20532;-49
2022/07/04 07:05:30;;;;;;;2.47;1.30;;;18.20;99.90;;;;;;5033731;28;20178;-52
2022/07/04 07:07:56;;;;;;;3.83;1.33;;;18.20;99.90;;;;;;5033574;28;20176;-52
2022/07/04 07:10:22;;;;;;;2.60;1.30;;;18.30;99.90;;;;;;5032840;28;20195;-51
2022/07/04 07:12:48;;;;;;;3.17;1.52;;;18.60;99.90;;;;;;5033228;28;20254;-53
2022/07/04 07:15:14;;;;;;;2.38;1.40;;;18.80;99.90;;;;;;5033345;28;20537;-51
2022/07/04 07:17:40;;;;;;;2.85;1.65;;;18.90;99.90;;;;;;4999432;28;20176;-52
2022/07/04 07:20:07;;;;;;;3.13;1.45;;;18.80;99.90;;;;;;5033424;28;20200;-53
2022/07/04 07:22:33;;;;;;;3.17;1.70;;;18.90;99.90;;;;;;5015937;28;20176;-50
2022/07/04 07:24:59;;;;;;;4.65;1.92;;;18.80;99.90;;;;;;5033595;28;20223;-52
2022/07/04 07:27:25;;;;;;;2.47;1.30;;;18.80;99.90;;;;;;5033226;28;20176;-54
2022/07/04 07:29:51;;;;;;;1.35;1.08;;;19.00;99.90;;;;;;5033285;28;20206;-50
2022/07/04 07:32:17;;;;;;;2.20;1.30;;;19.20;99.90;;;;;;4999502;28;20179;-50
2022/07/04 07:34:43;;;;;;;3.03;1.30;;;19.10;99.90;;;;;;5033274;28;20168;-53
2022/07/04 07:37:09;;;;;;;1.20;1.08;;;19.30;99.90;;;;;;5033286;28;20222;-51
2022/07/04 07:39:34;;;;;;;2.20;1.33;;;19.50;99.90;;;;;;5015494;28;20218;-52
2022/07/04 07:42:00;;;;;;;2.10;1.42;;;19.80;99.90;;;;;;5032957;28;20216;-52
2022/07/04 07:44:26;;;;;;;2.38;1.48;;;19.70;99.90;;;;;;5015787;28;20176;-52
2022/07/04 07:46:52;;;;;;;3.95;1.50;;;19.80;99.90;;;;;;5033184;28;20167;-50
2022/07/04 07:49:17;;;;;;;3.58;1.45;;;19.90;99.90;;;;;;4999140;28;20187;-49
2022/07/04 07:51:43;;;;;;;2.40;1.30;;;20.00;99.90;;;;;;5033204;28;20187;-51
2022/07/04 07:54:09;;;;;;;2.83;1.42;;;20.00;99.90;;;;;;5015330;28;20184;-49
2022/07/04 07:56:35;;;;;;;2.78;1.40;;;20.20;99.90;;;;;;5032988;28;20176;-48
2022/07/04 07:59:00;;;;;;;1.60;1.00;;;20.20;99.90;;;;;;5033046;28;20184;-49
2022/07/04 08:01:26;;;;;;;1.98;1.23;;;20.40;99.90;;;;;;5033208;28;20223;-51
2022/07/04 08:06:36;;;;;;;2.65;1.08;;;20.60;99.90;;;;;;5033321;28;20187;-49
2022/07/04 08:09:02;;;;;;;2.72;1.40;;;20.90;99.90;;;;;;5032761;28;20179;-49
2022/07/04 08:11:28;;;;;;;1.88;1.38;;;21.00;99.90;;;;;;5033066;28;20222;-51
2022/07/04 08:13:53;;;;;;;2.83;1.20;;;20.90;99.90;;;;;;5033051;28;20172;-49
2022/07/04 08:16:19;;;;;;;1.63;1.27;;;20.90;99.90;;;;;;5032920;28;20176;-49
2022/07/04 08:18:45;;;;;;;0.95;0.85;;;20.90;99.90;;;;;;5015232;28;20194;-50
2022/07/04 08:21:13;;;;;;;1.30;0.93;;;20.90;99.90;;;;;;4998782;28;20250;-51
2022/07/04 08:23:39;;;;;;;1.92;1.35;;;21.00;99.90;;;;;;5036017;28;20629;-50
2022/07/04 08:26:05;;;;;;;2.67;1.50;;;20.90;99.90;;;;;;5036740;28;20625;-49
2022/07/04 08:28:31;;;;;;;1.25;1.05;;;21.20;99.90;;;;;;5036572;28;20179;-49
2022/07/04 08:30:57;;;;;;;1.95;1.17;;;21.00;99.90;;;;;;5036486;28;20641;-50
2022/07/04 08:33:23;;;;;;;2.55;1.27;;;21.40;99.90;;;;;;5036352;28;20262;-49
2022/07/04 08:35:50;;;;;;;1.35;1.10;;;21.50;99.90;;;;;;5036310;28;20175;-49
2022/07/04 08:38:17;;;;;;;2.53;1.40;;;21.60;99.90;;;;;;5018640;28;20226;-49
2022/07/04 08:40:43;;;;;;;3.10;1.30;;;21.70;99.90;;;;;;5036299;28;20263;-49
2022/07/04 08:43:13;;;;;;;2.42;1.17;;;21.60;99.90;;;;;;5036286;28;20176;-49
2022/07/04 08:45:40;;;;;;;2.08;1.40;;;21.80;99.90;;;;;;5036271;28;20580;-48
2022/07/04 08:48:08;;;;;;;3.05;1.33;;;22.10;99.90;;;;;;5036189;28;20184;-50
2022/07/04 08:50:38;;;;;;;3.03;1.25;;;22.20;99.90;;;;;;5035989;28;20187;-52
2022/07/04 08:53:15;;;;;;;2.28;1.30;;;22.30;99.90;;;;;;5036195;28;20176;-49
2022/07/04 08:58:29;;;;;;;2.55;1.13;;;22.20;99.90;;;;;;5036317;28;20199;-52
2022/07/04 09:01:02;;;;;;;2.08;1.02;;;22.40;99.90;;;;;;5036028;28;20250;-52
2022/07/04 09:03:30;;;;;;;1.75;1.30;;;22.20;99.90;;;;;;5036119;28;20180;-53
2022/07/04 09:05:56;;;;;;;2.65;1.10;;;22.30;99.90;;;;;;5035957;28;20179;-50
2022/07/04 09:08:23;;;;;;;1.85;1.10;;;22.40;99.90;;;;;;5035901;28;20306;-50
2022/07/04 09:10:50;;;;;;;1.92;1.27;;;22.50;99.90;;;;;;5001818;28;20246;-50
2022/07/04 09:13:17;;;;;;;1.55;0.90;;;22.70;99.90;;;;;;5035810;28;20172;-51
2022/07/04 09:15:47;;;;;;;3.00;1.20;;;22.90;99.90;;;;;;5035473;28;20172;-49
2022/07/04 09:18:24;;;;;;;3.05;1.15;;;22.90;99.90;;;;;;5018059;28;20218;-50
2022/07/04 09:20:50;;;;;;;1.23;1.00;;;22.90;99.90;;;;;;5035548;28;20298;-49
2022/07/04 09:23:27;;;;;;;0.88;0.70;;;23.10;99.90;;;;;;5018105;28;20241;-49
2022/07/04 09:26:11;;;;;;;1.27;0.82;;;23.30;99.90;;;;;;5035495;28;20195;-49
2022/07/04 09:28:39;;;;;;;1.27;0.80;;;23.20;99.90;;;;;;5035550;28;20175;-53
2022/07/04 09:31:15;;;;;;;2.38;0.63;;;23.30;99.90;;;;;;5035367;28;20184;-49
2022/07/04 09:33:49;;;;;;;0.90;0.70;;;23.40;99.90;;;;;;5034513;28;20167;-52
2022/07/04 09:36:17;;;;;;;1.42;0.95;;;23.50;99.90;;;;;;5035255;28;20187;-49
2022/07/04 09:38:44;;;;;;;1.20;0.90;;;23.30;99.90;;;;;;5035073;28;20212;-52
2022/07/04 09:41:24;;;;;;;2.78;1.27;;;23.40;99.90;;;;;;5017686;28;20302;-49
2022/07/04 09:44:05;;;;;;;1.13;1.02;;;23.40;99.90;;;;;;5035157;28;20270;-53
2022/07/04 09:46:32;;;;;;;0.88;0.80;;;23.50;99.90;;;;;;5034989;28;20168;-52
2022/07/04 09:48:58;;;;;;;1.98;0.90;;;23.80;99.90;;;;;;5034942;28;20199;-51
2022/07/04 09:51:44;;;;;;;1.63;0.80;;;23.70;99.90;;;;;;5035175;28;20180;-53
2022/07/04 09:54:17;;;;;;;1.95;1.00;;;24.10;99.90;;;;;;5034759;28;20510;-52
2022/07/04 09:56:53;;;;;;;1.30;0.93;;;23.90;99.90;;;;;;5034787;28;20637;-52
2022/07/04 09:59:20;;;;;;;2.72;1.05;;;23.90;99.90;;;;;;5034499;28;20278;-51
2022/07/04 10:01:46;;;;;;;1.67;0.70;;;23.90;99.90;;;;;;5034604;28;20230;-50
2022/07/04 10:04:13;;;;;;;1.45;1.00;;;24.10;99.90;;;;;;5034920;28;20705;-53
2022/07/04 10:06:41;;;;;;;0.82;0.82;;;24.00;99.90;;;;;;5034703;28;20176;-51
2022/07/04 10:09:17;;;;;;;1.45;0.88;;;23.80;99.90;;;;;;5034615;28;20174;-52
2022/07/04 10:11:45;;;;;;;0.65;0.65;;;23.90;99.90;;;;;;5034503;28;20175;-50
2022/07/04 10:14:14;;;;;;;1.20;0.80;;;24.20;99.90;;;;;;5034492;28;20172;-51
2022/07/04 10:16:40;;;;;;;1.98;0.70;;;23.70;99.90;;;;;;5017336;28;20169;-53
2022/07/04 10:19:10;;;;;;;2.17;0.80;;;23.90;99.90;;;;;;5034621;28;20187;-53
2022/07/04 10:21:35;;;;;;;1.33;0.88;;;24.20;99.90;;;;;;5034371;28;20736;-54
2022/07/04 10:24:03;;;;;;;1.10;0.63;;;24.50;99.90;;;;;;5034383;28;20199;-52
2022/07/04 10:26:29;;;;;;;0.82;0.80;;;24.90;99.90;;;;;;5016748;28;20184;-53
2022/07/04 10:28:56;;;;;;;2.65;0.70;;;25.10;99.90;;;;;;5034044;28;20203;-53
2022/07/04 10:31:25;;;;;;;0.55;0.55;;;25.00;99.90;;;;;;5016607;28;20534;-51
2022/07/04 10:33:52;;;;;;;1.20;0.55;;;24.50;99.90;;;;;;5034179;28;20625;-53
2022/07/04 10:36:23;;;;;;;0.75;0.50;;;24.40;99.90;;;;;;5034074;28;20168;-54
2022/07/04 10:38:55;;;;;;;0.57;0.52;;;24.50;99.90;;;;;;5034039;28;20187;-56
2022/07/04 10:41:23;;;;;;;1.05;0.70;;;24.80;99.90;;;;;;5034274;28;20207;-55
2022/07/04 10:43:49;;;;;;;0.40;0.30;;;25.00;99.90;;;;;;5033894;28;20518;-53
2022/07/04 10:46:19;;;;;;;0.85;0.52;;;25.20;99.90;;;;;;5033935;28;20175;-56
2022/07/04 10:48:56;;;;;;;0.88;0.57;;;25.30;99.90;;;;;;5033914;28;20180;-53
2022/07/04 10:51:47;;;;;;;0.85;0.73;;;25.30;99.80;;;;;;5033849;28;20188;-49
2022/07/04 10:54:15;;;;;;;0.93;0.60;;;24.90;99.70;;;;;;5033975;28;20161;-49
2022/07/04 10:56:54;;;;;;;1.30;0.50;;;24.30;99.90;;;;;;5033826;28;20172;-52
2022/07/04 10:59:28;;;;;;;0.65;0.65;;;24.20;99.90;;;;;;5033587;28;20655;-51
2022/07/04 11:01:57;;;;;;;0.40;0.40;;;24.50;99.90;;;;;;5033520;28;20530;-49
2022/07/04 11:04:50;;;;;;;0.75;0.57;;;24.80;99.90;;;;;;5033837;28;20679;-49
2022/07/04 11:07:18;;;;;;;0.57;0.50;;;24.90;99.90;;;;;;5016028;28;20175;-50
2022/07/04 11:09:44;;;;;;;1.00;0.55;;;25.10;99.90;;;;;;5033590;28;20317;-51
2022/07/04 11:12:14;;;;;;;1.02;0.70;;;25.30;99.90;;;;;;5033459;28;20192;-50
2022/07/04 11:14:45;;;;;;;0.73;0.60;;;25.60;99.90;;;;;;5015749;28;20187;-49
2022/07/04 11:17:39;;;;;;;0.55;0.50;;;25.70;98.90;;;;;;5033579;28;20176;-50
2022/07/04 11:20:07;;;;;;;0.68;0.50;;;25.70;99.30;;;;;;5033892;28;20525;-52
2022/07/04 11:22:33;;;;;;;0.45;0.40;;;25.60;99.50;;;;;;5016057;28;20176;-51
2022/07/04 11:24:59;;;;;;;0.60;0.60;;;25.70;99.90;;;;;;5015513;28;20184;-52
2022/07/04 11:27:24;;;;;;;1.27;0.65;;;25.70;99.60;;;;;;5033588;28;20179;-50
2022/07/04 11:29:54;;;;;;;0.60;0.60;;;25.90;98.50;;;;;;5033179;28;20246;-52
2022/07/04 11:32:21;;;;;;;1.25;0.70;;;25.90;99.20;;;;;;5033399;28;20172;-54
2022/07/04 11:34:48;;;;;;;1.02;0.52;;;26.10;99.30;;;;;;5033226;28;20186;-51
2022/07/04 11:37:14;;;;;;;0.60;0.60;;;25.90;99.10;;;;;;5033081;28;20183;-54
2022/07/04 11:39:39;;;;;;;0.50;0.50;;;25.90;98.60;;;;;;5015856;28;20172;-51
2022/07/04 11:45:07;;;;;;;0.22;0.22;;;26.00;98.30;;;;;;5033353;28;20306;-54
2022/07/04 11:47:41;;;;;;;0.45;0.45;;;26.00;97.40;;;;;;5015450;28;20187;-50
2022/07/04 11:50:18;;;;;;;1.80;0.75;;;26.20;97.50;;;;;;5032969;28;20180;-52
2022/07/04 11:52:51;;;;;;;1.00;0.47;;;26.00;96.90;;;;;;5033348;28;20199;-51
2022/07/04 11:55:17;;;;;;;1.17;0.60;;;25.80;97.00;;;;;;5033144;28;20175;-52
2022/07/04 11:57:49;;;;;;;0.63;0.60;;;25.90;97.90;;;;;;5035141;28;20172;-51
2022/07/04 12:00:16;;;;;;;0.60;0.50;;;26.00;97.70;;;;;;5037143;28;20223;-50
2022/07/04 12:02:43;;;;;;;0.50;0.50;;;25.90;98.30;;;;;;5037169;28;20521;-52
2022/07/04 12:05:10;;;;;;;0.50;0.50;;;25.80;96.00;;;;;;5037147;28;20259;-53
2022/07/04 12:07:41;;;;;;;1.40;0.68;;;26.20;97.40;;;;;;5036880;28;20234;-52
2022/07/04 12:10:16;;;;;;;2.13;0.68;;;26.30;96.60;;;;;;5036810;28;20699;-52
2022/07/04 12:12:53;;;;;;;1.08;0.50;;;26.30;96.30;;;;;;5036795;28;20164;-54
2022/07/04 12:15:20;;;;;;;1.40;0.60;;;26.20;97.10;;;;;;5036958;28;20226;-53
2022/07/04 12:17:54;;;;;;;0.45;0.45;;;26.30;97.60;;;;;;5036767;28;20203;-52
2022/07/04 12:20:21;;;;;;;0.50;0.50;;;26.30;97.00;;;;;;5036747;28;20264;-52
2022/07/04 12:22:52;;;;;;;1.95;0.70;;;26.30;97.10;;;;;;5036638;28;20684;-55
2022/07/04 12:25:24;;;;;;;0.55;0.55;;;26.60;97.00;;;;;;5036505;28;20172;-51
2022/07/04 12:27:59;;;;;;;0.57;0.50;;;26.50;97.00;;;;;;5036681;28;20266;-55
2022/07/04 12:30:31;;;;;;;0.55;0.55;;;26.50;96.50;;;;;;5036596;28;20203;-52
2022/07/04 12:32:59;;;;;;;0.75;0.60;;;26.60;97.10;;;;;;5036424;28;20198;-52
2022/07/04 12:35:48;;;;;;;0.88;0.70;;;26.80;96.60;;;;;;5036335;28;20176;-54
2022/07/04 12:38:17;;;;;;;0.63;0.43;;;26.30;96.20;;;;;;5036729;28;20168;-53
2022/07/04 12:40:58;;;;;;;0.57;0.45;;;25.70;94.60;;;;;;5036290;28;20208;-55
2022/07/04 12:43:26;;;;;;;0.65;0.63;;;25.40;97.00;;;;;;5036320;28;20214;-52
2022/07/04 12:45:55;;;;;;;2.47;0.70;;;25.10;96.60;;;;;;5036175;28;20176;-53
2022/07/04 12:48:26;;;;;;;0.50;0.50;;;25.10;95.20;;;;;;5036062;28;20183;-51
2022/07/04 12:50:53;;;;;;;0.77;0.77;;;25.60;97.50;;;;;;5036205;28;20182;-52
2022/07/04 12:53:19;;;;;;;1.33;0.55;;;25.80;97.50;;;;;;5036150;28;20644;-51
2022/07/04 12:55:46;;;;;;;0.77;0.70;;;25.50;96.80;;;;;;5036243;28;20207;-51
2022/07/04 12:58:13;;;;;;;0.70;0.70;;;25.20;97.80;;;;;;5036025;28;20172;-49
2022/07/04 13:00:40;;;;;;;0.60;0.60;;;24.60;99.10;;;;;;5035656;28;20219;-52
2022/07/04 13:03:06;;;;;;;0.70;0.70;;;24.30;98.90;;;;;;5035862;28;20537;-49